sensor_id;sensor_type;location;lat;lon;timestamp;temperature;humidity
41939;DHT22;23057;48.554;14.454;2023-09-19T00:01:17;14.60;99.90
41939;DHT22;23057;48.554;14.454;2023-09-19T00:03:50;14.60;99.90
41939;DHT22;23057;48.554;14.454;2023-09-19T00:06:21;14.60;99.90
41939;DHT22;23057;48.554;14.454;2023-09-19T00:08:52;14.60;99.90
41939;DHT22;23057;48.554;14.454;2023-09-19T00:11:25;14.70;99.90
41939;DHT22;23057;48.554;14.454;2023-09-19T00:13:57;14.70;99.90
41939;DHT22;23057;48.554;14.454;2023-09-19T00:16:31;14.70;99.90
41939;DHT22;23057;48.554;14.454;2023-09-19T00:19:02;14.70;99.90
41939;DHT22;23057;48.554;14.454;2023-09-19T00:21:33;14.70;99.90
41939;DHT22;23057;48.554;14.454;2023-09-19T00:24:06;14.70;99.90
41939;DHT22;23057;48.554;14.454;2023-09-19T00:26:37;14.70;99.90
41939;DHT22;23057;48.554;14.454;2023-09-19T00:29:08;14.70;99.90
41939;DHT22;23057;48.554;14.454;2023-09-19T00:31:39;14.70;99.90
41939;DHT22;23057;48.554;14.454;2023-09-19T00:34:10;14.60;99.90
41939;DHT22;23057;48.554;14.454;2023-09-19T00:36:41;14.60;99.90
41939;DHT22;23057;48.554;14.454;2023-09-19T00:39:13;14.60;99.90
41939;DHT22;23057;48.554;14.454;2023-09-19T00:41:44;14.60;99.90
41939;DHT22;23057;48.554;14.454;2023-09-19T00:44:15;14.50;99.90
41939;DHT22;23057;48.554;14.454;2023-09-19T00:46:46;14.50;99.90
41939;DHT22;23057;48.554;14.454;2023-09-19T00:49:19;14.50;99.90
41939;DHT22;23057;48.554;14.454;2023-09-19T00:51:52;14.50;99.90
41939;DHT22;23057;48.554;14.454;2023-09-19T00:54:23;14.60;99.90
41939;DHT22;23057;48.554;14.454;2023-09-19T00:56:56;14.60;99.90
41939;DHT22;23057;48.554;14.454;2023-09-19T00:59:27;14.60;99.90
41939;DHT22;23057;48.554;14.454;2023-09-19T01:02:00;14.50;99.90
41939;DHT22;23057;48.554;14.454;2023-09-19T01:04:34;14.60;99.90
41939;DHT22;23057;48.554;14.454;2023-09-19T01:07:05;14.60;99.90
41939;DHT22;23057;48.554;14.454;2023-09-19T01:09:38;14.60;99.90
41939;DHT22;23057;48.554;14.454;2023-09-19T01:12:09;14.70;99.90
41939;DHT22;23057;48.554;14.454;2023-09-19T01:15:06;14.70;99.90
41939;DHT22;23057;48.554;14.454;2023-09-19T01:21:50;14.60;99.90
41939;DHT22;23057;48.554;14.454;2023-09-19T01:30:57;14.50;99.90
41939;DHT22;23057;48.554;14.454;2023-09-19T01:33:55;14.50;99.90
41939;DHT22;23057;48.554;14.454;2023-09-19T01:36:35;14.50;99.90
41939;DHT22;23057;48.554;14.454;2023-09-19T01:39:11;14.60;99.90
41939;DHT22;23057;48.554;14.454;2023-09-19T01:45:07;14.70;99.90
41939;DHT22;23057;48.554;14.454;2023-09-19T01:47:51;14.70;99.90
41939;DHT22;23057;48.554;14.454;2023-09-19T01:50:52;14.80;99.90
41939;DHT22;23057;48.554;14.454;2023-09-19T01:53:39;14.80;99.90
41939;DHT22;23057;48.554;14.454;2023-09-19T01:56:28;14.80;99.90
41939;DHT22;23057;48.554;14.454;2023-09-19T01:59:21;14.80;99.90
41939;DHT22;23057;48.554;14.454;2023-09-19T02:02:01;14.60;99.90
41939;DHT22;23057;48.554;14.454;2023-09-19T02:04:35;14.50;99.90
41939;DHT22;23057;48.554;14.454;2023-09-19T02:07:06;14.50;99.90
41939;DHT22;23057;48.554;14.454;2023-09-19T02:09:38;14.50;99.90
41939;DHT22;23057;48.554;14.454;2023-09-19T02:12:09;14.50;99.90
41939;DHT22;23057;48.554;14.454;2023-09-19T02:14:40;14.50;99.90
41939;DHT22;23057;48.554;14.454;2023-09-19T02:17:11;14.40;99.90
41939;DHT22;23057;48.554;14.454;2023-09-19T02:19:43;14.40;99.90
41939;DHT22;23057;48.554;14.454;2023-09-19T02:22:14;14.40;99.90
41939;DHT22;23057;48.554;14.454;2023-09-19T02:24:46;14.40;99.90
41939;DHT22;23057;48.554;14.454;2023-09-19T02:27:18;14.30;99.90
41939;DHT22;23057;48.554;14.454;2023-09-19T02:29:49;14.30;99.90
41939;DHT22;23057;48.554;14.454;2023-09-19T02:32:20;14.30;99.90
41939;DHT22;23057;48.554;14.454;2023-09-19T02:34:51;14.30;99.90
41939;DHT22;23057;48.554;14.454;2023-09-19T02:37:22;14.40;99.90
41939;DHT22;23057;48.554;14.454;2023-09-19T02:39:53;14.40;99.90
41939;DHT22;23057;48.554;14.454;2023-09-19T02:42:24;14.40;99.90
41939;DHT22;23057;48.554;14.454;2023-09-19T02:44:54;14.40;99.90
41939;DHT22;23057;48.554;14.454;2023-09-19T02:47:27;14.40;99.90
41939;DHT22;23057;48.554;14.454;2023-09-19T02:49:58;14.50;99.90
41939;DHT22;23057;48.554;14.454;2023-09-19T02:52:29;14.40;99.90
41939;DHT22;23057;48.554;14.454;2023-09-19T02:55:00;14.40;99.90
41939;DHT22;23057;48.554;14.454;2023-09-19T02:57:32;14.30;99.90
41939;DHT22;23057;48.554;14.454;2023-09-19T03:00:04;14.40;99.90
41939;DHT22;23057;48.554;14.454;2023-09-19T03:02:38;14.40;99.90
41939;DHT22;23057;48.554;14.454;2023-09-19T03:05:11;14.40;99.90
41939;DHT22;23057;48.554;14.454;2023-09-19T03:07:42;14.50;99.90
41939;DHT22;23057;48.554;14.454;2023-09-19T03:10:13;14.40;99.90
41939;DHT22;23057;48.554;14.454;2023-09-19T03:12:46;14.50;99.90
41939;DHT22;23057;48.554;14.454;2023-09-19T03:15:18;14.50;99.90
41939;DHT22;23057;48.554;14.454;2023-09-19T03:17:50;14.50;99.90
41939;DHT22;23057;48.554;14.454;2023-09-19T03:20:23;14.40;99.90
41939;DHT22;23057;48.554;14.454;2023-09-19T03:22:55;14.40;99.90
41939;DHT22;23057;48.554;14.454;2023-09-19T03:25:27;14.40;99.90
41939;DHT22;23057;48.554;14.454;2023-09-19T03:27:59;14.30;99.90
41939;DHT22;23057;48.554;14.454;2023-09-19T03:30:29;14.20;99.90
41939;DHT22;23057;48.554;14.454;2023-09-19T03:33:00;14.10;99.90
41939;DHT22;23057;48.554;14.454;2023-09-19T03:35:31;14.00;99.90
41939;DHT22;23057;48.554;14.454;2023-09-19T03:38:02;13.90;99.90
41939;DHT22;23057;48.554;14.454;2023-09-19T03:40:34;13.80;99.90
41939;DHT22;23057;48.554;14.454;2023-09-19T03:43:08;13.80;99.90
41939;DHT22;23057;48.554;14.454;2023-09-19T03:45:38;13.80;99.90
41939;DHT22;23057;48.554;14.454;2023-09-19T03:48:10;13.80;99.90
41939;DHT22;23057;48.554;14.454;2023-09-19T03:50:41;13.70;99.90
41939;DHT22;23057;48.554;14.454;2023-09-19T03:53:14;13.70;99.90
41939;DHT22;23057;48.554;14.454;2023-09-19T03:55:45;13.70;99.90
41939;DHT22;23057;48.554;14.454;2023-09-19T03:58:16;13.70;99.90
41939;DHT22;23057;48.554;14.454;2023-09-19T04:00:47;13.70;99.90
41939;DHT22;23057;48.554;14.454;2023-09-19T04:03:20;13.70;99.90
41939;DHT22;23057;48.554;14.454;2023-09-19T04:05:51;13.70;99.90
41939;DHT22;23057;48.554;14.454;2023-09-19T04:08:21;13.70;99.90
41939;DHT22;23057;48.554;14.454;2023-09-19T04:10:52;13.80;99.90
41939;DHT22;23057;48.554;14.454;2023-09-19T04:13:23;13.80;99.90
41939;DHT22;23057;48.554;14.454;2023-09-19T04:15:54;13.80;99.90
41939;DHT22;23057;48.554;14.454;2023-09-19T04:18:25;13.90;99.90
41939;DHT22;23057;48.554;14.454;2023-09-19T04:20:56;14.00;99.90
41939;DHT22;23057;48.554;14.454;2023-09-19T04:23:27;14.00;99.90
41939;DHT22;23057;48.554;14.454;2023-09-19T04:25:59;14.10;99.90
41939;DHT22;23057;48.554;14.454;2023-09-19T04:28:31;14.10;99.90
41939;DHT22;23057;48.554;14.454;2023-09-19T04:31:04;14.00;99.90
41939;DHT22;23057;48.554;14.454;2023-09-19T04:33:35;14.00;99.90
41939;DHT22;23057;48.554;14.454;2023-09-19T04:36:06;14.00;99.90
41939;DHT22;23057;48.554;14.454;2023-09-19T04:38:37;14.00;99.90
41939;DHT22;23057;48.554;14.454;2023-09-19T04:41:08;13.90;99.90
41939;DHT22;23057;48.554;14.454;2023-09-19T04:43:39;13.90;99.90
41939;DHT22;23057;48.554;14.454;2023-09-19T04:46:09;13.80;99.90
41939;DHT22;23057;48.554;14.454;2023-09-19T04:48:41;13.70;99.90
41939;DHT22;23057;48.554;14.454;2023-09-19T04:51:11;13.70;99.90
41939;DHT22;23057;48.554;14.454;2023-09-19T04:53:44;13.70;99.90
41939;DHT22;23057;48.554;14.454;2023-09-19T04:56:14;13.70;99.90
41939;DHT22;23057;48.554;14.454;2023-09-19T04:58:45;13.70;99.90
41939;DHT22;23057;48.554;14.454;2023-09-19T05:01:16;13.60;99.90
41939;DHT22;23057;48.554;14.454;2023-09-19T05:03:48;13.60;99.90
41939;DHT22;23057;48.554;14.454;2023-09-19T05:06:23;13.60;99.90
41939;DHT22;23057;48.554;14.454;2023-09-19T05:08:53;13.70;99.90
41939;DHT22;23057;48.554;14.454;2023-09-19T05:11:24;13.80;99.90
41939;DHT22;23057;48.554;14.454;2023-09-19T05:13:56;13.80;99.90
41939;DHT22;23057;48.554;14.454;2023-09-19T05:16:28;13.80;99.90
41939;DHT22;23057;48.554;14.454;2023-09-19T05:19:01;13.80;99.90
41939;DHT22;23057;48.554;14.454;2023-09-19T05:21:32;13.80;99.90
41939;DHT22;23057;48.554;14.454;2023-09-19T05:24:04;13.90;99.90
41939;DHT22;23057;48.554;14.454;2023-09-19T05:26:38;14.00;99.90
41939;DHT22;23057;48.554;14.454;2023-09-19T05:29:10;14.00;99.90
41939;DHT22;23057;48.554;14.454;2023-09-19T05:31:41;14.00;99.90
41939;DHT22;23057;48.554;14.454;2023-09-19T05:34:13;14.00;99.90
41939;DHT22;23057;48.554;14.454;2023-09-19T05:36:44;14.00;99.90
41939;DHT22;23057;48.554;14.454;2023-09-19T05:39:15;14.00;99.90
41939;DHT22;23057;48.554;14.454;2023-09-19T05:41:46;14.00;99.90
41939;DHT22;23057;48.554;14.454;2023-09-19T05:44:17;14.10;99.90
41939;DHT22;23057;48.554;14.454;2023-09-19T05:46:48;14.10;99.90
41939;DHT22;23057;48.554;14.454;2023-09-19T05:49:20;14.20;99.90
41939;DHT22;23057;48.554;14.454;2023-09-19T05:51:52;14.20;99.90
41939;DHT22;23057;48.554;14.454;2023-09-19T05:54:24;14.30;99.90
41939;DHT22;23057;48.554;14.454;2023-09-19T05:56:55;14.40;99.90
41939;DHT22;23057;48.554;14.454;2023-09-19T05:59:28;14.40;99.90
41939;DHT22;23057;48.554;14.454;2023-09-19T06:01:59;14.50;99.90
41939;DHT22;23057;48.554;14.454;2023-09-19T06:04:30;14.50;99.90
41939;DHT22;23057;48.554;14.454;2023-09-19T06:07:01;14.50;99.90
41939;DHT22;23057;48.554;14.454;2023-09-19T06:09:33;14.60;99.90
41939;DHT22;23057;48.554;14.454;2023-09-19T06:12:04;14.60;99.90
41939;DHT22;23057;48.554;14.454;2023-09-19T06:14:35;14.60;99.90
41939;DHT22;23057;48.554;14.454;2023-09-19T06:17:06;14.60;99.90
41939;DHT22;23057;48.554;14.454;2023-09-19T06:19:37;14.70;99.90
41939;DHT22;23057;48.554;14.454;2023-09-19T06:22:08;14.70;99.90
41939;DHT22;23057;48.554;14.454;2023-09-19T06:24:39;14.70;99.90
41939;DHT22;23057;48.554;14.454;2023-09-19T06:27:10;14.80;99.90
41939;DHT22;23057;48.554;14.454;2023-09-19T06:29:41;14.70;99.90
41939;DHT22;23057;48.554;14.454;2023-09-19T06:32:12;14.80;99.90
41939;DHT22;23057;48.554;14.454;2023-09-19T06:34:43;14.80;99.90
41939;DHT22;23057;48.554;14.454;2023-09-19T06:37:14;14.80;99.90
41939;DHT22;23057;48.554;14.454;2023-09-19T06:39:44;14.80;99.90
41939;DHT22;23057;48.554;14.454;2023-09-19T06:42:16;14.90;99.90
41939;DHT22;23057;48.554;14.454;2023-09-19T06:44:47;15.00;99.90
41939;DHT22;23057;48.554;14.454;2023-09-19T06:47:18;15.10;99.90
41939;DHT22;23057;48.554;14.454;2023-09-19T06:49:49;15.30;99.90
41939;DHT22;23057;48.554;14.454;2023-09-19T06:52:21;15.40;99.90
41939;DHT22;23057;48.554;14.454;2023-09-19T06:54:52;15.40;99.90
41939;DHT22;23057;48.554;14.454;2023-09-19T06:57:23;15.60;99.90
41939;DHT22;23057;48.554;14.454;2023-09-19T06:59:54;16.00;99.90
41939;DHT22;23057;48.554;14.454;2023-09-19T07:02:25;16.40;99.90
41939;DHT22;23057;48.554;14.454;2023-09-19T07:04:56;17.00;99.90
41939;DHT22;23057;48.554;14.454;2023-09-19T07:07:27;17.40;99.90
41939;DHT22;23057;48.554;14.454;2023-09-19T07:09:58;17.30;99.90
41939;DHT22;23057;48.554;14.454;2023-09-19T07:12:29;16.90;99.90
41939;DHT22;23057;48.554;14.454;2023-09-19T07:15:00;16.80;99.90
41939;DHT22;23057;48.554;14.454;2023-09-19T07:17:31;16.90;99.90
41939;DHT22;23057;48.554;14.454;2023-09-19T07:20:03;16.90;99.90
41939;DHT22;23057;48.554;14.454;2023-09-19T07:22:38;16.70;99.90
41939;DHT22;23057;48.554;14.454;2023-09-19T07:25:09;16.80;99.90
41939;DHT22;23057;48.554;14.454;2023-09-19T07:27:41;16.80;99.90
41939;DHT22;23057;48.554;14.454;2023-09-19T07:30:13;17.00;99.90
41939;DHT22;23057;48.554;14.454;2023-09-19T07:32:45;17.60;99.90
41939;DHT22;23057;48.554;14.454;2023-09-19T07:35:16;18.10;99.90
41939;DHT22;23057;48.554;14.454;2023-09-19T07:37:48;18.40;99.90
41939;DHT22;23057;48.554;14.454;2023-09-19T07:40:20;18.70;99.90
41939;DHT22;23057;48.554;14.454;2023-09-19T07:42:51;18.30;99.90
41939;DHT22;23057;48.554;14.454;2023-09-19T07:45:21;17.60;99.90
41939;DHT22;23057;48.554;14.454;2023-09-19T07:47:53;17.10;99.90
41939;DHT22;23057;48.554;14.454;2023-09-19T07:50:23;17.00;99.90
41939;DHT22;23057;48.554;14.454;2023-09-19T07:52:56;16.90;99.90
41939;DHT22;23057;48.554;14.454;2023-09-19T07:55:27;16.80;99.90
41939;DHT22;23057;48.554;14.454;2023-09-19T07:57:59;16.60;99.90
41939;DHT22;23057;48.554;14.454;2023-09-19T08:00:30;16.70;99.90
41939;DHT22;23057;48.554;14.454;2023-09-19T08:03:05;16.70;99.90
41939;DHT22;23057;48.554;14.454;2023-09-19T08:05:36;16.70;99.90
41939;DHT22;23057;48.554;14.454;2023-09-19T08:08:07;16.70;99.90
41939;DHT22;23057;48.554;14.454;2023-09-19T08:10:38;16.80;99.90
41939;DHT22;23057;48.554;14.454;2023-09-19T08:13:12;16.70;99.90
41939;DHT22;23057;48.554;14.454;2023-09-19T08:15:45;16.70;99.90
41939;DHT22;23057;48.554;14.454;2023-09-19T08:18:16;16.80;99.90
41939;DHT22;23057;48.554;14.454;2023-09-19T08:20:52;16.80;99.90
41939;DHT22;23057;48.554;14.454;2023-09-19T08:23:23;16.80;99.90
41939;DHT22;23057;48.554;14.454;2023-09-19T08:25:57;16.80;99.90
41939;DHT22;23057;48.554;14.454;2023-09-19T08:28:28;16.80;99.90
41939;DHT22;23057;48.554;14.454;2023-09-19T08:31:07;16.80;99.90
41939;DHT22;23057;48.554;14.454;2023-09-19T08:33:39;16.70;99.90
41939;DHT22;23057;48.554;14.454;2023-09-19T08:36:11;16.60;99.90
41939;DHT22;23057;48.554;14.454;2023-09-19T08:38:45;16.60;99.90
41939;DHT22;23057;48.554;14.454;2023-09-19T08:41:17;16.60;99.90
41939;DHT22;23057;48.554;14.454;2023-09-19T08:43:48;16.70;99.90
41939;DHT22;23057;48.554;14.454;2023-09-19T08:46:24;16.60;99.90
41939;DHT22;23057;48.554;14.454;2023-09-19T08:49:04;16.50;99.90
41939;DHT22;23057;48.554;14.454;2023-09-19T08:51:46;16.70;99.90
41939;DHT22;23057;48.554;14.454;2023-09-19T08:54:33;17.40;99.90
41939;DHT22;23057;48.554;14.454;2023-09-19T08:57:10;17.80;99.90
41939;DHT22;23057;48.554;14.454;2023-09-19T08:59:42;18.10;99.90
41939;DHT22;23057;48.554;14.454;2023-09-19T09:02:15;18.20;99.90
41939;DHT22;23057;48.554;14.454;2023-09-19T09:04:50;18.10;99.90
41939;DHT22;23057;48.554;14.454;2023-09-19T09:07:22;17.90;99.90
41939;DHT22;23057;48.554;14.454;2023-09-19T09:09:53;18.10;99.90
41939;DHT22;23057;48.554;14.454;2023-09-19T09:12:25;17.90;87.70
41939;DHT22;23057;48.554;14.454;2023-09-19T09:14:57;17.80;99.90
41939;DHT22;23057;48.554;14.454;2023-09-19T09:17:28;18.00;99.90
41939;DHT22;23057;48.554;14.454;2023-09-19T09:19:58;18.00;99.90
41939;DHT22;23057;48.554;14.454;2023-09-19T09:22:29;18.00;51.20
41939;DHT22;23057;48.554;14.454;2023-09-19T09:25:02;17.90;1.00
41939;DHT22;23057;48.554;14.454;2023-09-19T09:27:34;17.80;1.00
41939;DHT22;23057;48.554;14.454;2023-09-19T09:30:05;17.90;1.00
41939;DHT22;23057;48.554;14.454;2023-09-19T09:32:37;17.90;1.00
41939;DHT22;23057;48.554;14.454;2023-09-19T09:35:10;17.80;1.00
41939;DHT22;23057;48.554;14.454;2023-09-19T09:37:43;17.90;1.00
41939;DHT22;23057;48.554;14.454;2023-09-19T09:40:14;17.90;1.00
41939;DHT22;23057;48.554;14.454;2023-09-19T09:42:45;17.90;99.90
41939;DHT22;23057;48.554;14.454;2023-09-19T09:45:19;17.80;99.90
41939;DHT22;23057;48.554;14.454;2023-09-19T09:48:00;17.60;1.00
41939;DHT22;23057;48.554;14.454;2023-09-19T09:50:35;17.40;1.00
41939;DHT22;23057;48.554;14.454;2023-09-19T09:53:26;17.30;1.00
41939;DHT22;23057;48.554;14.454;2023-09-19T09:56:07;17.50;1.00
41939;DHT22;23057;48.554;14.454;2023-09-19T09:58:49;17.50;1.00
41939;DHT22;23057;48.554;14.454;2023-09-19T10:01:25;17.70;86.90
41939;DHT22;23057;48.554;14.454;2023-09-19T10:03:58;17.70;99.90
41939;DHT22;23057;48.554;14.454;2023-09-19T10:06:41;17.80;99.90
41939;DHT22;23057;48.554;14.454;2023-09-19T10:09:17;17.80;99.90
41939;DHT22;23057;48.554;14.454;2023-09-19T10:12:05;17.70;1.00
41939;DHT22;23057;48.554;14.454;2023-09-19T10:14:41;17.70;1.00
41939;DHT22;23057;48.554;14.454;2023-09-19T10:17:19;17.70;1.00
41939;DHT22;23057;48.554;14.454;2023-09-19T10:19:57;17.70;1.00
41939;DHT22;23057;48.554;14.454;2023-09-19T10:22:30;18.00;99.90
41939;DHT22;23057;48.554;14.454;2023-09-19T10:25:06;18.50;99.90
41939;DHT22;23057;48.554;14.454;2023-09-19T10:27:39;19.00;99.90
41939;DHT22;23057;48.554;14.454;2023-09-19T10:30:13;18.50;29.00
41939;DHT22;23057;48.554;14.454;2023-09-19T10:32:53;18.50;1.00
41939;DHT22;23057;48.554;14.454;2023-09-19T10:35:32;18.50;9.10
41939;DHT22;23057;48.554;14.454;2023-09-19T10:38:10;18.50;1.00
41939;DHT22;23057;48.554;14.454;2023-09-19T10:40:43;18.40;1.00
41939;DHT22;23057;48.554;14.454;2023-09-19T10:43:20;18.40;1.00
41939;DHT22;23057;48.554;14.454;2023-09-19T10:46:00;18.30;1.00
41939;DHT22;23057;48.554;14.454;2023-09-19T10:48:37;18.10;1.00
41939;DHT22;23057;48.554;14.454;2023-09-19T10:54:01;18.60;1.00
41939;DHT22;23057;48.554;14.454;2023-09-19T10:56:47;18.40;1.00
41939;DHT22;23057;48.554;14.454;2023-09-19T10:59:22;19.00;1.00
41939;DHT22;23057;48.554;14.454;2023-09-19T11:01:57;19.10;99.90
41939;DHT22;23057;48.554;14.454;2023-09-19T11:04:34;19.20;99.90
41939;DHT22;23057;48.554;14.454;2023-09-19T11:07:09;19.50;99.90
41939;DHT22;23057;48.554;14.454;2023-09-19T11:09:50;19.80;99.90
41939;DHT22;23057;48.554;14.454;2023-09-19T11:15:07;19.20;99.90
41939;DHT22;23057;48.554;14.454;2023-09-19T11:17:42;18.90;99.90
41939;DHT22;23057;48.554;14.454;2023-09-19T11:20:19;18.60;99.90
41939;DHT22;23057;48.554;14.454;2023-09-19T11:23:17;18.50;99.90
41939;DHT22;23057;48.554;14.454;2023-09-19T11:25:49;18.20;99.90
41939;DHT22;23057;48.554;14.454;2023-09-19T11:30:52;18.30;99.90
41939;DHT22;23057;48.554;14.454;2023-09-19T11:33:28;18.30;1.00
41939;DHT22;23057;48.554;14.454;2023-09-19T11:36:11;18.40;1.00
41939;DHT22;23057;48.554;14.454;2023-09-19T11:49:31;19.10;99.90
41939;DHT22;23057;48.554;14.454;2023-09-19T11:52:04;19.20;99.90
41939;DHT22;23057;48.554;14.454;2023-09-19T11:54:40;18.70;99.90
41939;DHT22;23057;48.554;14.454;2023-09-19T11:57:20;18.50;99.90
41939;DHT22;23057;48.554;14.454;2023-09-19T11:59:53;18.60;99.90
41939;DHT22;23057;48.554;14.454;2023-09-19T12:02:39;18.30;99.90
41939;DHT22;23057;48.554;14.454;2023-09-19T12:05:17;18.40;99.90
41939;DHT22;23057;48.554;14.454;2023-09-19T12:08:00;18.30;99.90
41939;DHT22;23057;48.554;14.454;2023-09-19T12:10:31;18.20;99.90
41939;DHT22;23057;48.554;14.454;2023-09-19T12:13:02;18.30;99.90
41939;DHT22;23057;48.554;14.454;2023-09-19T12:15:36;18.30;99.90
41939;DHT22;23057;48.554;14.454;2023-09-19T12:18:09;18.30;99.90
41939;DHT22;23057;48.554;14.454;2023-09-19T12:20:45;18.50;99.90
41939;DHT22;23057;48.554;14.454;2023-09-19T12:23:17;18.60;99.90
41939;DHT22;23057;48.554;14.454;2023-09-19T12:25:50;18.40;99.90
41939;DHT22;23057;48.554;14.454;2023-09-19T12:28:26;18.50;99.90
41939;DHT22;23057;48.554;14.454;2023-09-19T12:31:06;18.60;99.90
41939;DHT22;23057;48.554;14.454;2023-09-19T12:33:40;18.60;99.90
41939;DHT22;23057;48.554;14.454;2023-09-19T12:36:22;18.80;99.90
41939;DHT22;23057;48.554;14.454;2023-09-19T12:39:00;19.00;99.90
41939;DHT22;23057;48.554;14.454;2023-09-19T12:41:31;19.20;99.90
41939;DHT22;23057;48.554;14.454;2023-09-19T12:44:02;19.50;99.90
41939;DHT22;23057;48.554;14.454;2023-09-19T12:46:39;19.80;99.90
41939;DHT22;23057;48.554;14.454;2023-09-19T12:49:19;20.40;99.90
41939;DHT22;23057;48.554;14.454;2023-09-19T12:51:54;20.50;99.90
41939;DHT22;23057;48.554;14.454;2023-09-19T12:54:38;20.60;99.90
41939;DHT22;23057;48.554;14.454;2023-09-19T12:57:23;20.60;99.90
41939;DHT22;23057;48.554;14.454;2023-09-19T12:59:56;20.80;99.90
41939;DHT22;23057;48.554;14.454;2023-09-19T13:02:28;20.80;99.90
41939;DHT22;23057;48.554;14.454;2023-09-19T13:04:59;21.10;68.00
41939;DHT22;23057;48.554;14.454;2023-09-19T13:07:40;21.00;22.40
41939;DHT22;23057;48.554;14.454;2023-09-19T13:10:16;21.30;69.90
41939;DHT22;23057;48.554;14.454;2023-09-19T13:12:47;21.10;30.80
41939;DHT22;23057;48.554;14.454;2023-09-19T13:15:18;20.80;21.60
41939;DHT22;23057;48.554;14.454;2023-09-19T13:17:54;20.40;47.00
41939;DHT22;23057;48.554;14.454;2023-09-19T13:20:25;20.10;67.80
41939;DHT22;23057;48.554;14.454;2023-09-19T13:23:02;19.90;99.90
41939;DHT22;23057;48.554;14.454;2023-09-19T13:25:40;19.90;99.90
41939;DHT22;23057;48.554;14.454;2023-09-19T13:28:11;20.10;99.90
41939;DHT22;23057;48.554;14.454;2023-09-19T13:30:42;19.70;99.90
41939;DHT22;23057;48.554;14.454;2023-09-19T13:33:15;19.50;99.90
41939;DHT22;23057;48.554;14.454;2023-09-19T13:35:51;19.60;99.90
41939;DHT22;23057;48.554;14.454;2023-09-19T13:38:23;19.30;99.90
41939;DHT22;23057;48.554;14.454;2023-09-19T13:40:54;19.30;99.90
41939;DHT22;23057;48.554;14.454;2023-09-19T13:43:26;19.20;99.90
41939;DHT22;23057;48.554;14.454;2023-09-19T13:45:57;18.90;14.40
41939;DHT22;23057;48.554;14.454;2023-09-19T13:48:28;18.10;1.00
41939;DHT22;23057;48.554;14.454;2023-09-19T13:51:00;16.90;99.90
41939;DHT22;23057;48.554;14.454;2023-09-19T13:53:33;16.60;99.90
41939;DHT22;23057;48.554;14.454;2023-09-19T13:56:04;16.50;99.90
41939;DHT22;23057;48.554;14.454;2023-09-19T13:58:35;16.60;99.90
41939;DHT22;23057;48.554;14.454;2023-09-19T14:01:06;16.60;99.90
41939;DHT22;23057;48.554;14.454;2023-09-19T14:03:42;16.50;99.90
41939;DHT22;23057;48.554;14.454;2023-09-19T14:06:17;16.60;99.90
41939;DHT22;23057;48.554;14.454;2023-09-19T14:08:48;16.60;99.90
41939;DHT22;23057;48.554;14.454;2023-09-19T14:11:20;16.70;99.90
41939;DHT22;23057;48.554;14.454;2023-09-19T14:13:51;16.70;99.90
41939;DHT22;23057;48.554;14.454;2023-09-19T14:16:22;16.80;99.90
41939;DHT22;23057;48.554;14.454;2023-09-19T14:18:54;16.90;99.90
41939;DHT22;23057;48.554;14.454;2023-09-19T14:21:26;17.00;99.90
41939;DHT22;23057;48.554;14.454;2023-09-19T14:23:56;17.10;99.90
41939;DHT22;23057;48.554;14.454;2023-09-19T14:26:27;17.10;99.90
41939;DHT22;23057;48.554;14.454;2023-09-19T14:28:58;17.10;99.90
41939;DHT22;23057;48.554;14.454;2023-09-19T14:31:29;17.00;99.90
41939;DHT22;23057;48.554;14.454;2023-09-19T14:34:00;17.00;99.90
41939;DHT22;23057;48.554;14.454;2023-09-19T14:36:32;17.10;99.90
41939;DHT22;23057;48.554;14.454;2023-09-19T14:39:04;17.00;99.90
41939;DHT22;23057;48.554;14.454;2023-09-19T14:41:35;17.20;99.90
41939;DHT22;23057;48.554;14.454;2023-09-19T14:44:06;17.10;99.90
41939;DHT22;23057;48.554;14.454;2023-09-19T14:46:36;16.90;99.90
41939;DHT22;23057;48.554;14.454;2023-09-19T14:49:07;16.90;99.90
41939;DHT22;23057;48.554;14.454;2023-09-19T14:51:40;16.90;99.90
41939;DHT22;23057;48.554;14.454;2023-09-19T14:54:11;17.00;99.90
41939;DHT22;23057;48.554;14.454;2023-09-19T14:56:42;17.00;99.90
41939;DHT22;23057;48.554;14.454;2023-09-19T14:59:13;17.00;99.90
41939;DHT22;23057;48.554;14.454;2023-09-19T15:01:46;17.10;99.90
41939;DHT22;23057;48.554;14.454;2023-09-19T15:04:16;17.40;99.90
41939;DHT22;23057;48.554;14.454;2023-09-19T15:06:48;17.60;99.90
41939;DHT22;23057;48.554;14.454;2023-09-19T15:09:19;17.80;99.90
41939;DHT22;23057;48.554;14.454;2023-09-19T15:11:49;17.90;99.90
41939;DHT22;23057;48.554;14.454;2023-09-19T15:14:21;18.00;99.90
41939;DHT22;23057;48.554;14.454;2023-09-19T15:16:52;18.20;99.90
41939;DHT22;23057;48.554;14.454;2023-09-19T15:19:23;18.20;99.90
41939;DHT22;23057;48.554;14.454;2023-09-19T15:21:54;18.30;99.90
41939;DHT22;23057;48.554;14.454;2023-09-19T15:24:25;18.20;99.90
41939;DHT22;23057;48.554;14.454;2023-09-19T15:26:56;18.10;99.90
41939;DHT22;23057;48.554;14.454;2023-09-19T15:29:27;17.90;99.90
41939;DHT22;23057;48.554;14.454;2023-09-19T15:31:58;17.90;99.90
41939;DHT22;23057;48.554;14.454;2023-09-19T15:34:32;17.70;86.80
41939;DHT22;23057;48.554;14.454;2023-09-19T15:37:04;17.70;96.40
41939;DHT22;23057;48.554;14.454;2023-09-19T15:39:34;17.60;99.90
41939;DHT22;23057;48.554;14.454;2023-09-19T15:42:07;17.50;42.40
41939;DHT22;23057;48.554;14.454;2023-09-19T15:44:38;17.40;99.90
41939;DHT22;23057;48.554;14.454;2023-09-19T15:47:09;17.40;99.90
41939;DHT22;23057;48.554;14.454;2023-09-19T15:49:39;17.30;99.90
41939;DHT22;23057;48.554;14.454;2023-09-19T15:52:10;17.20;99.90
41939;DHT22;23057;48.554;14.454;2023-09-19T15:54:41;17.30;99.90
41939;DHT22;23057;48.554;14.454;2023-09-19T15:57:15;17.20;99.90
41939;DHT22;23057;48.554;14.454;2023-09-19T15:59:45;17.30;99.90
41939;DHT22;23057;48.554;14.454;2023-09-19T16:02:17;17.30;99.90
41939;DHT22;23057;48.554;14.454;2023-09-19T16:04:48;17.30;99.90
41939;DHT22;23057;48.554;14.454;2023-09-19T16:07:19;17.10;99.90
41939;DHT22;23057;48.554;14.454;2023-09-19T16:09:50;17.00;99.90
41939;DHT22;23057;48.554;14.454;2023-09-19T16:12:20;16.90;99.90
41939;DHT22;23057;48.554;14.454;2023-09-19T16:14:51;16.90;99.90
41939;DHT22;23057;48.554;14.454;2023-09-19T16:17:22;16.80;99.90
41939;DHT22;23057;48.554;14.454;2023-09-19T16:19:53;16.90;99.90
41939;DHT22;23057;48.554;14.454;2023-09-19T16:22:24;17.00;99.90
41939;DHT22;23057;48.554;14.454;2023-09-19T16:24:56;16.80;99.90
41939;DHT22;23057;48.554;14.454;2023-09-19T16:27:27;16.80;99.90